Terminal Aerodrome Forecast
Issued by NWS Shreveport, LA

Home | Current Version | Previous Version | Text Only | Print | Product List | Glossary On
Versions: 1 2 3 4 5 6 7 8 9 10 11 12 13 14 15 16 17 18
000
FTUS44 KSHV 012340
TAFELD
TAF
KELD 012340Z 0200/0224 17012KT P6SM FEW035
     FM020700 19007KT P6SM BKN100 BKN250
     FM021000 19007KT 6SM BR BKN010
      TEMPO 0210/0214 4SM BR OVC005
     FM021600 19012G18KT P6SM BKN025 OVC035=

USA.gov is the U.S. government's official web portal to all federal, state and local government web resources and services.